createdAt,value
2023-01-27T00:00:23.524Z,-3.27
2023-01-27T00:01:25.743Z,-3.30
2023-01-27T00:02:30.443Z,-3.29
2023-01-27T00:03:32.990Z,-3.29
2023-01-27T00:04:41.156Z,-3.30
2023-01-27T00:05:43.173Z,-3.23
2023-01-27T00:06:48.216Z,-3.20
2023-01-27T00:07:50.596Z,-3.19
2023-01-27T00:08:55.303Z,-3.21
2023-01-27T00:09:57.344Z,-3.19
2023-01-27T00:11:14.833Z,-3.19
2023-01-27T00:12:35.195Z,-3.18
2023-01-27T00:13:39.896Z,-3.16
2023-01-27T00:14:41.931Z,-3.18
2023-01-27T00:15:46.713Z,-3.21
2023-01-27T00:16:48.739Z,-3.20
2023-01-27T00:17:53.341Z,-3.21
2023-01-27T00:18:58.221Z,-3.19
2023-01-27T00:20:04.136Z,-3.15
2023-01-27T00:21:21.745Z,-3.16
2023-01-27T00:22:38.926Z,-3.12
2023-01-27T00:23:56.085Z,-3.13
2023-01-27T00:25:00.733Z,-3.11
2023-01-27T00:26:06.575Z,-3.15
2023-01-27T00:27:12.814Z,-3.16
2023-01-27T00:28:22.971Z,-3.13
2023-01-27T00:29:27.721Z,-3.11
2023-01-27T00:30:29.851Z,-3.13
2023-01-27T00:31:47.050Z,-3.15
2023-01-27T00:33:04.315Z,-3.19
2023-01-27T00:34:11.944Z,-3.23
2023-01-27T00:35:16.937Z,-3.24
2023-01-27T00:36:21.769Z,-3.26
2023-01-27T00:37:23.773Z,-3.24
2023-01-27T00:38:29.147Z,-3.26
2023-01-27T00:39:31.154Z,-3.24
2023-01-27T00:40:36.008Z,-3.25
2023-01-27T00:41:39.221Z,-3.29
2023-01-27T00:42:43.898Z,-3.26
2023-01-27T00:43:46.363Z,-3.26
2023-01-27T00:45:03.302Z,-3.20
2023-01-27T00:46:08.242Z,-3.25
2023-01-27T00:47:13.026Z,-3.25
2023-01-27T00:48:15.343Z,-3.28
2023-01-27T00:49:20.220Z,-3.26
2023-01-27T00:50:25.043Z,-3.24
2023-01-27T00:51:29.800Z,-3.21
2023-01-27T00:52:31.811Z,-3.21
2023-01-27T00:53:36.525Z,-3.19
2023-01-27T00:54:38.529Z,-3.19
2023-01-27T00:55:43.163Z,-3.17
2023-01-27T00:56:45.219Z,-3.18
2023-01-27T00:57:49.957Z,-3.19
2023-01-27T00:58:51.955Z,-3.17
2023-01-27T00:59:59.535Z,-3.16
2023-01-27T01:01:05.241Z,-3.18
2023-01-27T01:02:10.022Z,-3.19
2023-01-27T01:03:12.135Z,-3.17
2023-01-27T01:04:16.854Z,-3.18
2023-01-27T01:05:18.874Z,-3.21
2023-01-27T01:06:26.610Z,-3.28
2023-01-27T01:07:28.842Z,-3.27
2023-01-27T01:08:34.275Z,-3.23
2023-01-27T01:09:36.288Z,-3.24
2023-01-27T01:10:41.566Z,-3.21
2023-01-27T01:11:43.669Z,-3.21
2023-01-27T01:12:48.596Z,-3.24
2023-01-27T01:13:50.626Z,-3.28
2023-01-27T01:14:55.344Z,-3.33
2023-01-27T01:15:57.583Z,-3.41
2023-01-27T01:17:02.205Z,-3.38
2023-01-27T01:18:04.855Z,-3.38
2023-01-27T01:19:09.611Z,-3.42
2023-01-27T01:20:13.017Z,-3.42
2023-01-27T01:21:19.070Z,-3.53
2023-01-27T01:22:23.870Z,-3.41
2023-01-27T01:23:28.593Z,-3.40
2023-01-27T01:24:30.653Z,-3.41
2023-01-27T01:25:35.464Z,-3.40
2023-01-27T01:26:37.620Z,-3.38
2023-01-27T01:27:42.815Z,-3.35
2023-01-27T01:28:45.719Z,-3.35
2023-01-27T01:29:50.297Z,-3.37
2023-01-27T01:30:52.410Z,-3.38
2023-01-27T01:31:57.042Z,-3.35
2023-01-27T01:32:59.165Z,-3.34
2023-01-27T01:34:03.775Z,-3.44
2023-01-27T01:35:06.406Z,-3.42
2023-01-27T01:36:13.718Z,-3.41
2023-01-27T01:37:15.694Z,-3.42
2023-01-27T01:38:23.211Z,-3.40
2023-01-27T01:39:25.220Z,-3.39
2023-01-27T01:40:30.458Z,-3.46
2023-01-27T01:41:35.211Z,-3.40
2023-01-27T01:42:56.228Z,-3.43
2023-01-27T01:44:00.931Z,-3.48
2023-01-27T01:45:44.582Z,-3.48
2023-01-27T01:46:49.444Z,-3.50
2023-01-27T01:47:51.458Z,-3.54
2023-01-27T01:48:59.458Z,-3.54
2023-01-27T01:52:29.250Z,-3.43
2023-01-27T01:53:37.458Z,-3.41
2023-01-27T01:54:47.091Z,-3.43
2023-01-27T01:55:49.442Z,-3.42
2023-01-27T01:56:58.695Z,-3.43
2023-01-27T01:58:01.060Z,-3.44
2023-01-27T01:59:08.887Z,-3.43
2023-01-27T02:00:13.256Z,-3.43
2023-01-27T02:01:20.217Z,-3.43
2023-01-27T02:02:26.403Z,-3.42
2023-01-27T02:03:33.203Z,-3.48
2023-01-27T02:04:42.175Z,-3.46
2023-01-27T02:05:45.564Z,-3.46
2023-01-27T02:07:01.629Z,-3.42
2023-01-27T02:08:08.490Z,-3.39
2023-01-27T02:09:15.920Z,-3.41
2023-01-27T02:10:18.174Z,-3.44
2023-01-27T02:11:23.093Z,-3.43
2023-01-27T02:12:25.091Z,-3.39
2023-01-27T02:13:29.936Z,-3.40
2023-01-27T02:14:32.194Z,-3.45
2023-01-27T02:15:37.860Z,-3.44
2023-01-27T02:16:43.656Z,-3.43
2023-01-27T02:17:45.833Z,-3.45
2023-01-27T02:18:50.681Z,-3.39
2023-01-27T02:20:01.646Z,-3.38
2023-01-27T02:21:07.709Z,-3.41
2023-01-27T02:22:15.067Z,-3.44
2023-01-27T02:23:39.768Z,-3.44
2023-01-27T02:24:50.246Z,-3.45
2023-01-27T02:26:03.721Z,-3.50
2023-01-27T02:27:06.134Z,-3.51
2023-01-27T02:28:11.689Z,-3.46
2023-01-27T02:29:16.010Z,-3.44
2023-01-27T02:30:21.754Z,-3.44
2023-01-27T02:31:24.670Z,-3.42
2023-01-27T02:32:30.295Z,-3.44
2023-01-27T02:33:32.367Z,-3.43
2023-01-27T02:34:41.155Z,-3.46
2023-01-27T02:35:47.517Z,-3.57
2023-01-27T02:36:54.383Z,-3.63
2023-01-27T02:37:57.842Z,-3.55
2023-01-27T02:39:04.733Z,-3.56
2023-01-27T02:40:09.566Z,-3.53
2023-01-27T02:41:21.442Z,-3.52
2023-01-27T02:42:24.177Z,-3.58
2023-01-27T02:43:28.878Z,-3.57
2023-01-27T02:44:30.948Z,-3.59
2023-01-27T02:45:35.904Z,-3.58
2023-01-27T02:46:38.111Z,-3.56
2023-01-27T02:47:42.852Z,-3.55
2023-01-27T02:48:45.148Z,-3.52
2023-01-27T02:49:50.027Z,-3.51
2023-01-27T02:50:52.257Z,-3.49
2023-01-27T02:51:57.192Z,-3.56
2023-01-27T02:52:59.176Z,-3.55
2023-01-27T02:54:03.835Z,-3.60
2023-01-27T02:55:07.397Z,-3.56
2023-01-27T02:56:11.995Z,-3.49
2023-01-27T02:57:16.619Z,-3.50
2023-01-27T02:58:21.286Z,-3.49
2023-01-27T02:59:23.606Z,-3.52
2023-01-27T03:00:28.334Z,-3.54
2023-01-27T03:01:32.832Z,-3.54
2023-01-27T03:02:37.664Z,-3.49
2023-01-27T03:03:44.429Z,-3.49
2023-01-27T03:04:49.288Z,-3.50
2023-01-27T03:05:51.811Z,-3.50
2023-01-27T03:06:56.859Z,-3.43
2023-01-27T03:07:58.874Z,-3.51
2023-01-27T03:09:03.484Z,-3.54
2023-01-27T03:10:06.998Z,-3.47
2023-01-27T03:11:13.199Z,-3.45
2023-01-27T03:12:20.775Z,-3.49
2023-01-27T03:13:25.728Z,-3.47
2023-01-27T03:14:42.782Z,-3.46
2023-01-27T03:15:59.884Z,-3.49
2023-01-27T03:17:17.183Z,-3.50
2023-01-27T03:18:22.913Z,-3.49
2023-01-27T03:19:27.002Z,-3.43
2023-01-27T03:20:31.964Z,-3.38
2023-01-27T03:21:34.143Z,-3.32
2023-01-27T03:22:38.850Z,-3.29
2023-01-27T03:23:45.913Z,-3.30
2023-01-27T03:24:47.943Z,-3.39
2023-01-27T03:25:52.816Z,-3.37
2023-01-27T03:26:54.806Z,-3.36
2023-01-27T03:28:02.929Z,-3.34
2023-01-27T03:29:20.209Z,-3.35
2023-01-27T03:30:24.852Z,-3.39
2023-01-27T03:31:27.112Z,-3.42
2023-01-27T03:32:34.403Z,-3.41
2023-01-27T03:33:36.628Z,-3.46
2023-01-27T03:34:41.271Z,-3.47
2023-01-27T03:35:48.728Z,-3.44
2023-01-27T03:37:06.112Z,-3.46
2023-01-27T03:38:28.057Z,-3.49
2023-01-27T03:39:45.091Z,-3.46
2023-01-27T03:41:02.962Z,-3.48
2023-01-27T03:42:20.061Z,-3.48
2023-01-27T03:43:39.795Z,-3.51
2023-01-27T03:44:56.883Z,-3.48
2023-01-27T03:46:14.077Z,-3.55
2023-01-27T03:47:18.678Z,-3.53
2023-01-27T03:48:21.125Z,-3.52
2023-01-27T03:49:25.875Z,-3.49
2023-01-27T03:50:38.180Z,-3.56
2023-01-27T03:51:43.061Z,-3.56
2023-01-27T03:53:03.225Z,-3.55
2023-01-27T03:54:09.912Z,-3.60
2023-01-27T03:55:12.188Z,-3.57
2023-01-27T03:56:19.511Z,-3.59
2023-01-27T03:57:21.655Z,-3.57
2023-01-27T03:58:30.697Z,-3.62
2023-01-27T03:59:32.918Z,-3.63
2023-01-27T04:00:38.183Z,-3.61
2023-01-27T04:01:44.420Z,-3.62
2023-01-27T04:03:01.569Z,-3.56
2023-01-27T04:04:18.739Z,-3.58
2023-01-27T04:05:35.832Z,-3.67
2023-01-27T04:06:59.174Z,-3.60
2023-01-27T04:08:01.165Z,-3.56
2023-01-27T04:09:06.496Z,-3.53
2023-01-27T04:10:10.180Z,-3.54
2023-01-27T04:11:27.324Z,-3.53
2023-01-27T04:12:32.501Z,-3.50
2023-01-27T04:13:37.458Z,-3.60
2023-01-27T04:14:43.980Z,-3.60
2023-01-27T04:15:46.058Z,-3.53
2023-01-27T04:16:50.949Z,-3.54
2023-01-27T04:17:53.086Z,-3.53
2023-01-27T04:18:58.105Z,-3.46
2023-01-27T04:20:02.892Z,-3.47
2023-01-27T04:21:05.427Z,-3.46
2023-01-27T04:22:11.199Z,-3.49
2023-01-27T04:23:13.528Z,-3.57
2023-01-27T04:24:25.300Z,-3.54
2023-01-27T04:25:27.567Z,-3.48
2023-01-27T04:26:34.714Z,-3.46
2023-01-27T04:27:39.504Z,-3.44
2023-01-27T04:28:45.021Z,-3.43
2023-01-27T04:29:49.959Z,-3.44
2023-01-27T04:30:52.065Z,-3.45
2023-01-27T04:31:58.082Z,-3.42
2023-01-27T04:33:02.680Z,-3.37
2023-01-27T04:34:07.486Z,-3.36
2023-01-27T04:35:12.704Z,-3.33
2023-01-27T04:36:17.630Z,-3.38
2023-01-27T04:37:22.356Z,-3.41
2023-01-27T04:38:24.542Z,-3.43
2023-01-27T04:39:29.576Z,-3.45
2023-01-27T04:40:31.795Z,-3.38
2023-01-27T04:41:36.534Z,-3.36
2023-01-27T04:42:38.546Z,-3.34
2023-01-27T04:43:43.205Z,-3.36
2023-01-27T04:44:50.414Z,-3.35
2023-01-27T04:45:52.459Z,-3.43
2023-01-27T04:46:57.263Z,-3.41
2023-01-27T04:47:59.257Z,-3.42
2023-01-27T04:49:04.190Z,-3.40
2023-01-27T04:50:07.094Z,-3.48
2023-01-27T04:51:11.750Z,-3.54
2023-01-27T04:52:16.354Z,-3.51
2023-01-27T04:53:18.441Z,-3.52
2023-01-27T04:54:23.041Z,-3.48
2023-01-27T04:55:25.242Z,-3.47
2023-01-27T04:56:32.927Z,-3.46
2023-01-27T04:57:34.938Z,-3.51
2023-01-27T04:58:39.752Z,-3.49
2023-01-27T04:59:44.424Z,-3.49
2023-01-27T05:00:49.109Z,-3.46
2023-01-27T05:01:53.895Z,-3.47
2023-01-27T05:02:55.925Z,-3.56
2023-01-27T05:04:00.988Z,-3.60
2023-01-27T05:05:04.810Z,-3.65
2023-01-27T05:06:10.141Z,-3.73
2023-01-27T05:07:12.261Z,-3.84
2023-01-27T05:08:16.957Z,-3.74
2023-01-27T05:09:21.750Z,-3.69
2023-01-27T05:10:23.754Z,-3.84
2023-01-27T05:11:28.707Z,-3.78
2023-01-27T05:12:30.875Z,-3.74
2023-01-27T05:13:35.850Z,-3.74
2023-01-27T05:14:37.962Z,-3.66
2023-01-27T05:15:42.834Z,-3.67
2023-01-27T05:16:50.466Z,-3.70
2023-01-27T05:17:52.983Z,-3.65
2023-01-27T05:18:57.833Z,-3.61
2023-01-27T05:19:59.870Z,-3.64
2023-01-27T05:21:05.380Z,-3.60
2023-01-27T05:22:07.733Z,-3.63
2023-01-27T05:23:25.088Z,-3.64
2023-01-27T05:24:29.806Z,-3.63
2023-01-27T05:25:31.974Z,-3.64
2023-01-27T05:26:36.869Z,-3.63
2023-01-27T05:27:38.910Z,-3.65
2023-01-27T05:28:45.021Z,-3.70
2023-01-27T05:29:47.034Z,-3.62
2023-01-27T05:30:51.740Z,-3.63
2023-01-27T05:31:59.219Z,-3.68
2023-01-27T05:33:01.313Z,-3.62
2023-01-27T05:34:06.032Z,-3.61
2023-01-27T05:35:08.769Z,-3.70
2023-01-27T05:36:16.405Z,-3.73
2023-01-27T05:37:18.534Z,-3.68
2023-01-27T05:38:23.151Z,-3.64
2023-01-27T05:39:27.939Z,-3.60
2023-01-27T05:40:30.334Z,-3.62
2023-01-27T05:41:35.127Z,-3.63
2023-01-27T05:42:37.237Z,-3.63
2023-01-27T05:43:43.605Z,-3.63
2023-01-27T05:44:45.786Z,-3.67
2023-01-27T05:45:50.637Z,-3.65
2023-01-27T05:46:55.320Z,-3.74
2023-01-27T05:48:00.023Z,-3.73
2023-01-27T05:49:04.407Z,-3.70
2023-01-27T05:50:10.478Z,-3.71
2023-01-27T05:51:15.055Z,-3.71
2023-01-27T05:52:19.945Z,-3.72
2023-01-27T05:53:23.084Z,-3.72
2023-01-27T05:54:27.953Z,-3.75
2023-01-27T05:55:29.998Z,-3.70
2023-01-27T05:56:35.223Z,-3.65
2023-01-27T05:57:37.221Z,-3.69
2023-01-27T05:58:42.364Z,-3.72
2023-01-27T05:59:44.366Z,-3.72
2023-01-27T06:00:49.526Z,-3.84
2023-01-27T06:01:54.202Z,-3.83
2023-01-27T06:02:58.831Z,-3.80
2023-01-27T06:04:04.034Z,-3.82
2023-01-27T06:05:07.014Z,-3.92
2023-01-27T06:06:13.138Z,-3.95
2023-01-27T06:07:15.279Z,-3.93
2023-01-27T06:08:20.270Z,-3.91
2023-01-27T06:09:25.099Z,-3.93
2023-01-27T06:10:27.132Z,-3.90
2023-01-27T06:11:31.830Z,-3.88
2023-01-27T06:12:33.953Z,-3.87
2023-01-27T06:13:39.104Z,-3.91
2023-01-27T06:14:41.232Z,-3.87
2023-01-27T06:15:48.075Z,-3.87
2023-01-27T06:16:50.150Z,-3.80
2023-01-27T06:17:54.952Z,-3.74
2023-01-27T06:19:02.604Z,-3.80
2023-01-27T06:20:05.989Z,-3.79
2023-01-27T06:21:13.383Z,-3.73
2023-01-27T06:22:15.607Z,-3.71
2023-01-27T06:23:20.721Z,-3.80
2023-01-27T06:24:24.248Z,-3.74
2023-01-27T06:25:29.040Z,-3.84
2023-01-27T06:26:31.128Z,-3.85
2023-01-27T06:27:35.979Z,-3.77
2023-01-27T06:28:38.897Z,-3.82
2023-01-27T06:29:43.685Z,-3.85
2023-01-27T06:30:45.828Z,-3.80
2023-01-27T06:31:50.762Z,-3.80
2023-01-27T06:32:52.819Z,-3.77
2023-01-27T06:33:57.501Z,-3.77
2023-01-27T06:35:02.149Z,-3.76
2023-01-27T06:36:09.392Z,-3.75
2023-01-27T06:37:11.542Z,-3.71
2023-01-27T06:38:16.939Z,-3.70
2023-01-27T06:39:19.104Z,-3.70
2023-01-27T06:40:24.113Z,-3.72
2023-01-27T06:41:26.223Z,-3.70
2023-01-27T06:42:31.083Z,-3.71
2023-01-27T06:43:36.471Z,-3.74
2023-01-27T06:44:38.548Z,-3.74
2023-01-27T06:45:43.843Z,-3.76
2023-01-27T06:46:48.891Z,-3.77
2023-01-27T06:47:56.186Z,-3.74
2023-01-27T06:49:00.796Z,-3.75
2023-01-27T06:50:06.059Z,-3.80
2023-01-27T06:51:10.820Z,-3.80
2023-01-27T06:52:12.915Z,-3.78
2023-01-27T06:53:17.617Z,-3.77
2023-01-27T06:54:19.694Z,-3.75
2023-01-27T06:55:24.410Z,-3.71
2023-01-27T06:56:29.042Z,-3.72
2023-01-27T06:57:31.262Z,-3.69
2023-01-27T06:58:36.053Z,-3.69
2023-01-27T06:59:38.464Z,-3.72
2023-01-27T07:00:44.739Z,-3.68
2023-01-27T07:01:47.192Z,-3.71
2023-01-27T07:02:53.880Z,-3.74
2023-01-27T07:03:56.058Z,-3.75
2023-01-27T07:05:00.773Z,-3.75
2023-01-27T07:06:11.162Z,-3.82
2023-01-27T07:07:13.409Z,-3.79
2023-01-27T07:08:18.072Z,-3.81
2023-01-27T07:09:20.095Z,-3.76
2023-01-27T07:10:24.982Z,-3.78
2023-01-27T07:11:26.996Z,-3.78
2023-01-27T07:12:32.428Z,-3.78
2023-01-27T07:13:37.106Z,-3.77
2023-01-27T07:14:39.522Z,-3.77
2023-01-27T07:15:44.676Z,-3.74
2023-01-27T07:16:46.852Z,-3.78
2023-01-27T07:17:51.630Z,-3.75
2023-01-27T07:18:53.629Z,-3.73
2023-01-27T07:19:58.353Z,-3.69
2023-01-27T07:21:03.141Z,-3.76
2023-01-27T07:22:10.862Z,-3.76
2023-01-27T07:23:13.371Z,-3.71
2023-01-27T07:24:19.167Z,-3.70
2023-01-27T07:25:21.343Z,-3.67
2023-01-27T07:26:27.246Z,-3.66
2023-01-27T07:27:32.496Z,-3.72
2023-01-27T07:28:34.464Z,-3.70
2023-01-27T07:29:39.670Z,-3.65
2023-01-27T07:30:43.630Z,-3.65
2023-01-27T07:31:48.860Z,-3.66
2023-01-27T07:32:51.014Z,-3.73
2023-01-27T07:33:56.780Z,-3.71
2023-01-27T07:34:58.892Z,-3.75
2023-01-27T07:36:03.950Z,-3.72
2023-01-27T07:37:08.655Z,-3.78
2023-01-27T07:38:15.219Z,-3.68
2023-01-27T07:39:20.083Z,-3.68
2023-01-27T07:40:24.878Z,-3.75
2023-01-27T07:41:27.032Z,-3.76
2023-01-27T07:42:31.625Z,-3.74
2023-01-27T07:43:36.923Z,-3.73
2023-01-27T07:44:39.043Z,-3.75
2023-01-27T07:45:43.815Z,-3.80
2023-01-27T07:46:48.608Z,-3.80
2023-01-27T07:47:53.189Z,-3.74
2023-01-27T07:48:55.238Z,-3.72
2023-01-27T07:49:59.893Z,-3.84
2023-01-27T07:51:04.938Z,-3.76
2023-01-27T07:52:12.492Z,-3.73
2023-01-27T07:53:14.807Z,-3.74
2023-01-27T07:54:19.703Z,-3.77
2023-01-27T07:55:21.759Z,-3.72
2023-01-27T07:56:27.144Z,-3.67
2023-01-27T07:57:29.191Z,-3.58
2023-01-27T07:58:33.764Z,-3.59
2023-01-27T07:59:38.487Z,-3.66
2023-01-27T08:00:43.163Z,-3.58
2023-01-27T08:01:47.179Z,-3.57
2023-01-27T08:02:53.448Z,-3.62
2023-01-27T08:03:55.521Z,-3.55
2023-01-27T08:05:00.150Z,-3.57
2023-01-27T08:06:05.675Z,-3.64
2023-01-27T08:07:13.360Z,-3.56
2023-01-27T08:08:15.363Z,-3.55
2023-01-27T08:09:20.334Z,-3.63
2023-01-27T08:10:25.624Z,-3.57
2023-01-27T08:11:30.460Z,-3.56
2023-01-27T08:12:32.491Z,-3.54
2023-01-27T08:13:38.332Z,-3.54
2023-01-27T08:14:43.019Z,-3.53
2023-01-27T08:15:47.926Z,-3.48
2023-01-27T08:16:52.533Z,-3.47
2023-01-27T08:17:55.508Z,-3.49
2023-01-27T08:19:00.122Z,-3.44
2023-01-27T08:20:05.799Z,-3.42
2023-01-27T08:21:14.035Z,-3.42
2023-01-27T08:22:23.897Z,-3.41
2023-01-27T08:23:26.113Z,-3.39
2023-01-27T08:24:30.748Z,-3.37
2023-01-27T08:25:32.818Z,-3.36
2023-01-27T08:26:37.568Z,-3.39
2023-01-27T08:27:42.304Z,-3.37
2023-01-27T08:28:44.538Z,-3.37
2023-01-27T08:29:49.217Z,-3.34
2023-01-27T08:30:52.075Z,-3.39
2023-01-27T08:31:56.734Z,-3.34
2023-01-27T08:33:01.360Z,-3.28
2023-01-27T08:34:06.115Z,-3.26
2023-01-27T08:35:08.823Z,-3.28
2023-01-27T08:36:17.021Z,-3.30
2023-01-27T08:37:24.261Z,-3.32
2023-01-27T08:38:29.028Z,-3.31
2023-01-27T08:39:31.373Z,-3.30
2023-01-27T08:40:36.145Z,-3.28
2023-01-27T08:41:38.686Z,-3.28
2023-01-27T08:42:43.390Z,-3.28
2023-01-27T08:43:45.515Z,-3.31
2023-01-27T08:44:50.247Z,-3.24
2023-01-27T08:45:52.627Z,-3.16
2023-01-27T08:46:57.571Z,-3.15
2023-01-27T08:47:59.731Z,-3.14
2023-01-27T08:49:04.443Z,-3.14
2023-01-27T08:50:07.509Z,-3.15
2023-01-27T08:51:15.263Z,-3.06
2023-01-27T08:52:20.094Z,-3.02
2023-01-27T08:53:28.550Z,-3.02
2023-01-27T08:54:30.806Z,-2.99
2023-01-27T08:55:36.248Z,-2.98
2023-01-27T08:56:40.978Z,-3.04
2023-01-27T08:57:43.116Z,-3.12
2023-01-27T08:58:48.840Z,-3.04
2023-01-27T08:59:50.805Z,-3.01
2023-01-27T09:00:55.527Z,-3.00
2023-01-27T09:01:57.512Z,-2.96
2023-01-27T09:03:02.459Z,-2.92
2023-01-27T09:04:07.293Z,-2.92
2023-01-27T09:05:09.400Z,-2.90
2023-01-27T09:06:15.842Z,-2.95
2023-01-27T09:07:20.810Z,-2.95
2023-01-27T09:08:29.170Z,-2.87
2023-01-27T09:09:33.827Z,-2.88
2023-01-27T09:10:40.659Z,-2.85
2023-01-27T09:11:44.294Z,-2.91
2023-01-27T09:12:49.316Z,-2.88
2023-01-27T09:13:54.059Z,-2.87
2023-01-27T09:14:59.318Z,-2.88
2023-01-27T09:16:04.139Z,-2.92
2023-01-27T09:17:09.220Z,-2.86
2023-01-27T09:18:14.286Z,-2.89
2023-01-27T09:19:16.337Z,-2.80
2023-01-27T09:20:30.952Z,-2.88
2023-01-27T09:21:33.093Z,-2.83
2023-01-27T09:22:39.887Z,-2.74
2023-01-27T09:23:47.174Z,-2.83
2023-01-27T09:24:49.252Z,-2.67
2023-01-27T09:25:53.945Z,-2.67
2023-01-27T09:26:56.112Z,-2.65
2023-01-27T09:28:02.321Z,-2.63
2023-01-27T09:29:07.041Z,-2.50
2023-01-27T09:30:14.000Z,-2.40
2023-01-27T09:31:16.419Z,-2.39
2023-01-27T09:32:21.085Z,-2.26
2023-01-27T09:33:23.111Z,-2.11
2023-01-27T09:34:28.078Z,-2.01
2023-01-27T09:35:39.774Z,-1.97
2023-01-27T09:36:45.814Z,-1.75
2023-01-27T09:37:54.546Z,-1.71
2023-01-27T09:39:04.539Z,-1.60
2023-01-27T09:40:20.778Z,-1.70
2023-01-27T09:41:52.591Z,-1.72
2023-01-27T09:43:20.929Z,-1.68
2023-01-27T09:44:59.717Z,-1.61
2023-01-27T09:46:32.765Z,-1.44
2023-01-27T09:48:05.495Z,-1.49
2023-01-27T09:49:33.214Z,-1.53
2023-01-27T09:50:46.352Z,-1.50
2023-01-27T09:52:02.687Z,-1.62
2023-01-27T09:53:46.972Z,-1.56
2023-01-27T09:55:07.488Z,-1.56
2023-01-27T09:56:20.524Z,-1.70
2023-01-27T09:57:37.883Z,-1.68
2023-01-27T09:58:59.505Z,-1.65
2023-01-27T10:00:16.546Z,-1.81
2023-01-27T10:01:30.559Z,-1.90
2023-01-27T10:02:51.323Z,-1.91
2023-01-27T10:04:13.270Z,-1.92
2023-01-27T10:05:44.909Z,-1.87
2023-01-27T10:07:01.330Z,-1.93
2023-01-27T10:08:19.407Z,-1.91
2023-01-27T10:09:49.682Z,-1.93
2023-01-27T10:11:13.951Z,-1.93
2023-01-27T10:12:37.552Z,-1.80
2023-01-27T10:13:58.920Z,-1.68
2023-01-27T10:15:13.437Z,-1.50
2023-01-27T10:16:34.645Z,-1.47
2023-01-27T10:17:51.577Z,-1.44
2023-01-27T10:19:13.281Z,-1.41
2023-01-27T10:20:29.663Z,-1.31
2023-01-27T10:21:43.392Z,-1.46
2023-01-27T10:22:56.980Z,-1.37
2023-01-27T10:24:08.926Z,-1.32
2023-01-27T10:25:28.397Z,-1.41
2023-01-27T10:26:40.732Z,-1.34
2023-01-27T10:27:50.959Z,-1.29
2023-01-27T10:29:01.306Z,-1.30
2023-01-27T10:30:13.611Z,-1.28
2023-01-27T10:31:26.878Z,-1.36
2023-01-27T10:32:42.759Z,-1.35
2023-01-27T10:33:51.832Z,-1.31
2023-01-27T10:35:17.043Z,-1.30
2023-01-27T10:36:30.231Z,-1.34
2023-01-27T10:37:47.083Z,-1.36
2023-01-27T10:39:00.698Z,-1.28
2023-01-27T10:40:13.843Z,-1.38
2023-01-27T10:41:33.047Z,-1.43
2023-01-27T10:42:44.653Z,-1.64
2023-01-27T10:43:54.282Z,-1.65
2023-01-27T10:45:13.070Z,-1.59
2023-01-27T10:46:27.148Z,-1.48
2023-01-27T10:47:43.126Z,-1.43
2023-01-27T10:48:52.841Z,-1.47
2023-01-27T10:49:59.801Z,-1.49
2023-01-27T10:51:10.573Z,-1.39
2023-01-27T10:52:19.433Z,-1.39
2023-01-27T10:53:29.573Z,-1.44
2023-01-27T10:54:39.303Z,-1.38
2023-01-27T10:55:50.017Z,-1.36
2023-01-27T10:56:59.814Z,-1.33
2023-01-27T10:58:12.133Z,-1.27
2023-01-27T10:59:25.167Z,-1.24
2023-01-27T11:01:09.081Z,-1.24
2023-01-27T11:02:09.124Z,-1.25
2023-01-27T11:03:21.649Z,-1.48
2023-01-27T11:04:36.130Z,-1.48
2023-01-27T11:05:44.303Z,-1.39
2023-01-27T11:06:51.948Z,-1.33
2023-01-27T11:08:03.155Z,-1.27
2023-01-27T11:09:15.669Z,-1.14
2023-01-27T11:10:22.552Z,-1.14
2023-01-27T11:11:41.056Z,-1.13
2023-01-27T11:12:50.710Z,-0.99
2023-01-27T11:14:04.686Z,-1.00
2023-01-27T11:15:21.757Z,-0.88
2023-01-27T11:16:25.699Z,-0.77
2023-01-27T11:17:35.361Z,-0.73
2023-01-27T11:18:38.927Z,-0.73
2023-01-27T11:19:48.596Z,-0.69
2023-01-27T11:20:54.603Z,-0.68
2023-01-27T11:22:07.748Z,-0.82
2023-01-27T11:23:20.378Z,-1.02
2023-01-27T11:24:29.009Z,-0.96
2023-01-27T11:25:45.845Z,-0.97
2023-01-27T11:26:53.815Z,-0.87
2023-01-27T11:28:17.932Z,-0.83
2023-01-27T11:29:34.907Z,-0.89
2023-01-27T11:30:46.000Z,-0.84
2023-01-27T11:32:00.161Z,-0.79
2023-01-27T11:33:13.256Z,-0.75
2023-01-27T11:34:24.598Z,-0.61
2023-01-27T11:35:29.753Z,-0.57
2023-01-27T11:36:33.425Z,-0.47
2023-01-27T11:37:41.284Z,-0.52
2023-01-27T11:38:46.527Z,-0.48
2023-01-27T11:39:51.548Z,-0.42
2023-01-27T11:40:57.113Z,-0.32
2023-01-27T11:41:59.721Z,-0.34
2023-01-27T11:43:06.612Z,-0.31
2023-01-27T11:44:20.131Z,-0.37
2023-01-27T11:45:28.437Z,-0.68
2023-01-27T11:46:35.225Z,-0.55
2023-01-27T11:47:42.722Z,-0.66
2023-01-27T11:48:51.771Z,-0.78
2023-01-27T11:49:54.579Z,-1.04
2023-01-27T11:50:59.209Z,-0.95
2023-01-27T11:52:05.964Z,-1.00
2023-01-27T11:53:17.729Z,-0.87
2023-01-27T11:54:26.399Z,-0.91
2023-01-27T11:55:38.562Z,-0.93
2023-01-27T11:56:46.578Z,-0.87
2023-01-27T11:57:53.068Z,-0.86
2023-01-27T11:59:04.423Z,-0.83
2023-01-27T12:00:20.046Z,-0.75
2023-01-27T12:01:48.314Z,-0.73
2023-01-27T12:03:01.296Z,-0.86
2023-01-27T12:04:08.311Z,-0.78
2023-01-27T12:05:18.289Z,-0.81
2023-01-27T12:06:34.776Z,-0.83
2023-01-27T12:07:49.970Z,-0.89
2023-01-27T12:09:02.378Z,-0.85
2023-01-27T12:10:22.887Z,-0.98
2023-01-27T12:11:29.574Z,-0.96
2023-01-27T12:12:31.540Z,-1.01
2023-01-27T12:13:36.782Z,-1.10
2023-01-27T12:14:38.814Z,-1.05
2023-01-27T12:15:51.312Z,-1.04
2023-01-27T12:16:56.969Z,-1.15
2023-01-27T12:18:04.195Z,-1.05
2023-01-27T12:19:25.234Z,-1.04
2023-01-27T12:20:35.716Z,-1.15
2023-01-27T12:21:48.972Z,-1.25
2023-01-27T12:22:54.264Z,-1.36
2023-01-27T12:23:59.595Z,-1.57
2023-01-27T12:25:07.896Z,-1.59
2023-01-27T12:26:14.329Z,-1.58
2023-01-27T12:27:24.816Z,-1.46
2023-01-27T12:28:35.061Z,-1.43
2023-01-27T12:29:42.158Z,-1.66
2023-01-27T12:30:50.300Z,-1.55
2023-01-27T12:32:01.267Z,-1.49
2023-01-27T12:33:13.170Z,-1.47
2023-01-27T12:34:28.128Z,-1.40
2023-01-27T12:35:37.249Z,-1.40
2023-01-27T12:36:42.400Z,-1.52
2023-01-27T12:37:48.067Z,-1.48
2023-01-27T12:38:55.522Z,-1.49
2023-01-27T12:40:03.930Z,-1.52
2023-01-27T12:41:08.374Z,-1.49
2023-01-27T12:42:38.844Z,-1.42
2023-01-27T12:43:54.916Z,-1.40
2023-01-27T12:44:59.345Z,-1.56
2023-01-27T12:46:18.571Z,-1.50
2023-01-27T12:47:30.605Z,-1.65
2023-01-27T12:48:34.423Z,-1.60
2023-01-27T12:49:44.679Z,-1.48
2023-01-27T12:51:09.072Z,-1.44
2023-01-27T12:52:22.520Z,-1.45
2023-01-27T12:53:27.851Z,-1.50
2023-01-27T12:54:35.687Z,-1.53
2023-01-27T12:55:41.581Z,-1.53
2023-01-27T12:56:46.511Z,-1.59
2023-01-27T12:57:51.200Z,-1.69
2023-01-27T12:59:02.515Z,-1.58
2023-01-27T13:00:05.884Z,-1.58
2023-01-27T13:01:24.599Z,-1.67
2023-01-27T13:02:36.292Z,-1.66
2023-01-27T13:03:44.949Z,-1.64
2023-01-27T13:04:55.216Z,-1.62
2023-01-27T13:06:00.107Z,-1.64
2023-01-27T13:07:10.522Z,-1.70
2023-01-27T13:08:15.827Z,-1.62
2023-01-27T13:09:30.518Z,-1.68
2023-01-27T13:10:33.215Z,-1.57
2023-01-27T13:11:41.673Z,-1.49
2023-01-27T13:12:50.110Z,-1.46
2023-01-27T13:13:54.734Z,-1.42
2023-01-27T13:14:58.491Z,-1.37
2023-01-27T13:16:11.382Z,-1.38
2023-01-27T13:17:44.579Z,-1.49
2023-01-27T13:18:57.069Z,-1.51
2023-01-27T13:20:05.589Z,-1.53
2023-01-27T13:21:16.352Z,-1.59
2023-01-27T13:22:21.713Z,-1.72
2023-01-27T13:23:29.592Z,-1.64
2023-01-27T13:24:41.333Z,-1.70
2023-01-27T13:25:50.008Z,-1.74
2023-01-27T13:26:55.311Z,-1.76
2023-01-27T13:27:59.875Z,-1.75
2023-01-27T13:29:13.613Z,-1.76
2023-01-27T13:30:24.068Z,-1.76
2023-01-27T13:31:43.438Z,-1.69
2023-01-27T13:32:54.548Z,-1.75
2023-01-27T13:34:04.395Z,-1.80
2023-01-27T13:35:22.849Z,-1.77
2023-01-27T13:36:35.107Z,-1.87
2023-01-27T13:37:40.868Z,-1.94
2023-01-27T13:38:52.281Z,-1.95
2023-01-27T13:40:05.141Z,-1.96
2023-01-27T13:41:15.875Z,-1.94
2023-01-27T13:42:23.805Z,-2.12
2023-01-27T13:43:33.976Z,-2.11
2023-01-27T13:44:42.212Z,-2.09
2023-01-27T13:45:54.659Z,-2.07
2023-01-27T13:47:02.147Z,-2.13
2023-01-27T13:48:19.263Z,-2.15
2023-01-27T13:49:33.666Z,-2.20
2023-01-27T13:50:43.334Z,-2.14
2023-01-27T13:51:45.693Z,-2.15
2023-01-27T13:52:57.600Z,-2.21
2023-01-27T13:54:02.183Z,-2.16
2023-01-27T13:55:10.913Z,-2.17
2023-01-27T13:56:29.624Z,-2.15
2023-01-27T13:58:01.756Z,-2.15
2023-01-27T13:59:22.989Z,-2.11
2023-01-27T14:00:36.828Z,-2.15
2023-01-27T14:01:55.441Z,-2.22
2023-01-27T14:03:38.825Z,-2.15
2023-01-27T14:05:05.029Z,-2.14
2023-01-27T14:06:22.746Z,-2.14
2023-01-27T14:07:30.618Z,-2.14
2023-01-27T14:08:58.724Z,-2.23
2023-01-27T14:10:18.788Z,-2.30
2023-01-27T14:11:30.335Z,-2.32
2023-01-27T14:12:40.546Z,-2.32
2023-01-27T14:13:57.357Z,-2.43
2023-01-27T14:15:14.275Z,-2.40
2023-01-27T14:16:23.834Z,-2.36
2023-01-27T14:17:39.736Z,-2.34
2023-01-27T14:18:57.380Z,-2.30
2023-01-27T14:20:17.836Z,-2.33
2023-01-27T14:23:11.476Z,-2.32
2023-01-27T14:24:29.142Z,-2.34
2023-01-27T14:25:42.490Z,-2.29
2023-01-27T14:26:56.765Z,-2.32
2023-01-27T14:28:10.154Z,-2.36
2023-01-27T14:29:29.810Z,-2.35
2023-01-27T14:30:41.699Z,-2.25
2023-01-27T14:31:50.137Z,-2.25
2023-01-27T14:33:06.879Z,-2.34
2023-01-27T14:34:33.844Z,-2.43
2023-01-27T14:35:46.783Z,-2.33
2023-01-27T14:36:54.398Z,-2.41